This is the latest recevied weather packets stored in our database for station/object K5WRW-WX. If no packets are shown the sender has not sent any weather packets the latest 10 day(s).
| Time | Temp. | Humidity | Pressure | Rain* | Wind** | Luminosity | Snow |
|---|---|---|---|---|---|---|---|
| 1778072716 | 10.56° C | 85% | 1012 hPa | 0 mm | - | - | - |
| 1778070316 | 10.56° C | 87% | 1012 hPa | 0 mm | - | - | - |
| 1778069716 | 10° C | 88% | 1011.7 hPa | 0 mm | - | - | - |
| 1778068516 | 10° C | 88% | 1011.4 hPa | 0 mm | - | - | - |
| 1778064315 | 10.56° C | 84% | 1010.8 hPa | 0 mm | - | - | - |
| 1778061315 | 11.11° C | 81% | 1010.1 hPa | 0 mm | - | - | - |
| 1778054117 | 11.67° C | 78% | 1009.3 hPa | 0 mm | - | - | - |
| 1778052317 | 12.22° C | 77% | 1008.6 hPa | 0 mm | - | - | - |
| 1778039716 | 13.89° C | 79% | 1008.6 hPa | 0 mm | - | - | - |
| 1778037916 | 14.44° C | 79% | 1008.3 hPa | 0 mm | - | - | - |
| 1778037316 | 14.44° C | 79% | 1008.2 hPa | 0 mm | - | - | - |
| 1778031336 | 16.67° C | 80% | 1005.9 hPa | 0 mm | - | - | - |
| 1778028916 | 18.89° C | 78% | 1004.9 hPa | 0 mm | - | - | - |
| 1778026516 | 20.56° C | 76% | 1004.4 hPa | 0 mm | - | - | - |
| 1778019316 | 26.11° C | 60% | 1002.9 hPa | 0 mm | - | - | - |
| 1778016315 | 27.78° C | 52% | 1003.1 hPa | 0 mm | - | - | - |
| 1778014515 | 30° C | 55% | 1003 hPa | 0 mm | - | - | - |
| 1778004917 | 27.22° C | 68% | 1003.2 hPa | 0 mm | - | - | - |
| 1778001317 | 25.56° C | 74% | 1002.9 hPa | 0 mm | - | - | - |
| 1777998937 | 25° C | 76% | 1002.8 hPa | 0 mm | - | - | - |
| 1777994717 | 24.44° C | 76% | 1002.6 hPa | 0 mm | - | - | - |
| 1777992316 | 23.33° C | 80% | 1002.4 hPa | 0 mm | - | - | - |
| 1777991716 | 23.33° C | 80% | 1002.1 hPa | 0 mm | - | - | - |
| 1777988716 | 22.78° C | 81% | 1002.1 hPa | 0 mm | - | - | - |
| 1777979716 | 22.22° C | 82% | 1001.6 hPa | 0 mm | - | - | - |
* Rain latest hour (hover to see other rain measurements)
** Current wind speed in m/s (hover to see current wind gust speed)